Аэропорт: Звартноц. Ереван

ICAO: UDYZ

METAR:
2019-09-21 16:00:00
UDYZ 211600Z 23016KT 9999 NSC 23/04 Q1007 R27/010070 NOSIG
METAR:
2019-09-21 14:38:00
TAF AMD UDYZ 211438Z 2115/2212 22006KT 9999 FEW040 TEMPO 2115/2124 28024G34KT